Time;durP1;ratioP1;P1;durP2;ratioP2;P2;SDS_P1;SDS_P2;PMS_P1;PMS_P2;Temp;Humidity;BMP_temperature;BMP_pressure;BME280_temperature;BME280_humidity;BME280_pressure;Samples;Min_cycle;Max_cycle;Signal;HPM_P1;HPM_P2
2022/02/17 00:01:47;;;;;;;119.68;108.57;;;13.10;99.90;;;;;;4886360;29;20174;-85
2022/02/17 00:04:13;;;;;;;113.32;102.43;;;13.00;99.90;;;;;;4883715;29;20204;-84
2022/02/17 00:06:44;;;;;;;124.17;112.87;;;13.00;99.90;;;;;;4884746;29;20198;-84
2022/02/17 00:09:27;;;;;;;191.70;177.57;;;13.00;99.90;;;;;;4884308;29;20179;-85
2022/02/17 00:11:56;;;;;;;154.82;142.00;;;13.00;99.90;;;;;;4884465;29;20155;-84
2022/02/17 00:17:35;;;;;;;140.02;128.23;;;13.10;99.90;;;;;;4881440;29;20170;-84
2022/02/17 00:20:04;;;;;;;105.88;95.20;;;13.10;99.90;;;;;;4883959;29;20239;-84
2022/02/17 00:22:48;;;;;;;121.93;110.80;;;13.10;99.90;;;;;;4884294;29;20540;-85
2022/02/17 00:25:32;;;;;;;121.38;110.22;;;13.00;99.90;;;;;;4883245;29;20191;-85
2022/02/17 00:28:13;;;;;;;133.88;121.75;;;13.10;99.90;;;;;;4885321;29;20237;-85
2022/02/17 00:31:14;;;;;;;98.97;88.47;;;13.10;99.90;;;;;;4884669;29;20155;-85
2022/02/17 00:33:45;;;;;;;96.95;86.70;;;13.00;99.90;;;;;;4870072;29;20183;-85
2022/02/17 00:36:14;;;;;;;203.80;188.73;;;13.00;99.90;;;;;;4882560;29;20200;-85
2022/02/17 00:38:45;;;;;;;125.20;113.18;;;13.00;99.90;;;;;;4883204;29;20168;-84
2022/02/17 00:41:30;;;;;;;163.63;150.05;;;12.90;99.90;;;;;;4881256;29;20183;-84
2022/02/17 00:44:02;;;;;;;89.45;76.80;;;12.90;99.90;;;;;;4881544;29;20528;-83
2022/02/17 00:46:35;;;;;;;89.38;77.15;;;12.90;99.90;;;;;;4881310;29;20277;-83
2022/02/17 00:49:03;;;;;;;95.35;82.22;;;13.00;99.90;;;;;;4882549;29;20166;-83
2022/02/17 00:51:33;;;;;;;90.72;71.00;;;13.00;99.90;;;;;;4880726;29;20202;-83
2022/02/17 00:53:59;;;;;;;110.20;98.60;;;13.10;99.90;;;;;;4882519;29;20666;-83
2022/02/17 00:56:36;;;;;;;79.70;46.60;;;13.10;99.90;;;;;;4881668;29;20191;-83
2022/02/17 00:59:11;;;;;;;102.90;90.95;;;13.20;99.90;;;;;;4881492;29;20514;-83
2022/02/17 01:01:37;;;;;;;77.30;39.45;;;13.20;99.90;;;;;;4881902;29;20186;-83
2022/02/17 01:04:11;;;;;;;93.03;68.07;;;13.20;99.90;;;;;;4880505;29;20214;-84
2022/02/17 01:06:53;;;;;;;76.13;37.08;;;13.20;99.90;;;;;;4884202;29;20194;-86
2022/02/17 01:09:19;;;;;;;78.97;45.42;;;13.10;99.90;;;;;;4882359;29;20302;-85
2022/02/17 01:11:45;;;;;;;81.77;51.33;;;13.00;99.90;;;;;;4882045;29;20643;-84
2022/02/17 01:14:11;;;;;;;87.60;69.93;;;12.90;99.90;;;;;;4880815;29;20171;-84
2022/02/17 01:16:37;;;;;;;100.53;84.87;;;12.90;99.90;;;;;;4880751;29;20227;-83
2022/02/17 01:19:03;;;;;;;87.15;68.25;;;12.90;99.90;;;;;;4881893;29;20410;-83
2022/02/17 01:21:29;;;;;;;159.20;145.95;;;12.90;99.90;;;;;;4880673;29;20178;-83
2022/02/17 01:23:55;;;;;;;85.43;57.83;;;12.90;99.90;;;;;;4881988;29;20191;-84
2022/02/17 01:26:21;;;;;;;96.10;71.90;;;12.90;99.90;;;;;;4880840;29;20455;-84
2022/02/17 01:28:47;;;;;;;117.60;105.43;;;12.90;99.90;;;;;;4881725;29;20166;-84
2022/02/17 01:31:13;;;;;;;74.43;22.27;;;12.90;99.90;;;;;;4881705;29;20588;-84
2022/02/17 01:33:38;;;;;;;73.05;27.10;;;13.00;99.90;;;;;;4881305;29;20442;-84
2022/02/17 01:36:06;;;;;;;91.67;56.43;;;13.00;99.90;;;;;;4880175;29;20191;-84
2022/02/17 01:38:37;;;;;;;77.45;33.97;;;12.90;99.90;;;;;;4880249;29;20202;-84
2022/02/17 01:41:04;;;;;;;84.47;50.50;;;12.90;99.90;;;;;;4880369;29;20175;-84
2022/02/17 01:43:31;;;;;;;83.93;50.92;;;12.90;99.90;;;;;;4881372;29;20348;-84
2022/02/17 01:45:58;;;;;;;73.53;27.05;;;12.90;99.90;;;;;;4881267;29;20257;-84
2022/02/17 01:48:24;;;;;;;74.60;29.83;;;13.00;99.90;;;;;;4881835;29;20193;-85
2022/02/17 01:50:50;;;;;;;101.60;68.90;;;13.00;99.90;;;;;;4880839;29;20672;-84
2022/02/17 01:53:16;;;;;;;91.63;47.60;;;13.00;99.90;;;;;;4882244;29;20199;-84
2022/02/17 01:55:45;;;;;;;73.30;26.17;;;13.00;99.90;;;;;;4881882;29;20594;-85
2022/02/17 01:58:12;;;;;;;71.85;16.88;;;13.00;99.90;;;;;;4880552;29;20180;-84
2022/02/17 02:00:37;;;;;;;70.63;16.98;;;12.90;99.90;;;;;;4881403;29;20655;-84
2022/02/17 02:03:03;;;;;;;93.90;54.23;;;12.90;99.90;;;;;;4881082;29;20198;-84
2022/02/17 02:05:29;;;;;;;74.70;17.67;;;12.90;99.90;;;;;;4883317;29;20187;-85
2022/02/17 02:07:56;;;;;;;74.37;18.60;;;12.80;99.90;;;;;;4884198;29;20167;-85
2022/02/17 02:10:22;;;;;;;83.95;20.95;;;12.80;99.90;;;;;;4883894;29;20167;-86
2022/02/17 02:12:48;;;;;;;78.73;20.93;;;12.80;99.90;;;;;;4882647;29;20267;-85
2022/02/17 02:15:14;;;;;;;69.50;10.20;;;12.70;99.90;;;;;;4884368;29;20187;-85
2022/02/17 02:17:40;;;;;;;98.50;59.85;;;12.70;99.90;;;;;;4884233;29;20175;-84
2022/02/17 02:20:07;;;;;;;78.20;19.52;;;12.70;98.40;;;;;;4886489;29;20179;-86
2022/02/17 02:22:33;;;;;;;79.72;18.58;;;12.60;98.90;;;;;;4888240;29;20199;-85
2022/02/17 02:25:00;;;;;;;123.25;87.75;;;12.60;97.20;;;;;;4888536;29;20659;-84
2022/02/17 02:27:29;;;;;;;80.65;7.68;;;12.60;93.70;;;;;;4888383;29;20176;-86
2022/02/17 02:29:55;;;;;;;70.32;6.18;;;12.60;95.70;;;;;;4888343;29;20527;-85
2022/02/17 02:32:21;;;;;;;82.97;10.75;;;12.60;97.30;;;;;;4887199;29;20174;-86
2022/02/17 02:37:23;;;;;;;80.22;19.13;;;12.50;98.50;;;;;;4906037;29;20233;-86
2022/02/17 02:39:58;;;;;;;80.30;18.67;;;12.40;95.90;;;;;;4907666;29;20191;-86
2022/02/17 02:42:27;;;;;;;72.15;8.65;;;12.40;95.30;;;;;;4907977;29;20191;-86
2022/02/17 02:44:52;;;;;;;79.38;19.45;;;12.40;96.60;;;;;;4908936;29;20181;-86
2022/02/17 02:47:21;;;;;;;77.17;18.00;;;12.40;94.90;;;;;;4925243;29;20169;-86
2022/02/17 02:49:46;;;;;;;82.97;26.50;;;12.40;96.20;;;;;;4925913;29;20205;-86
2022/02/17 02:52:12;;;;;;;88.37;34.67;;;12.30;95.20;;;;;;4925223;29;20173;-86
2022/02/17 02:54:38;;;;;;;76.97;12.50;;;12.30;95.60;;;;;;4923919;29;20165;-85
2022/02/17 02:57:04;;;;;;;84.03;28.03;;;12.30;96.90;;;;;;4924788;29;20185;-86
2022/02/17 02:59:29;;;;;;;87.27;26.90;;;12.30;95.90;;;;;;4926392;29;20502;-86
2022/02/17 03:01:55;;;;;;;89.57;11.53;;;12.30;95.20;;;;;;4925090;29;20425;-86
2022/02/17 03:04:22;;;;;;;82.30;16.97;;;12.30;96.50;;;;;;4925996;29;20165;-86
2022/02/17 03:06:48;;;;;;;81.50;11.15;;;12.30;95.50;;;;;;4926092;29;20749;-86
2022/02/17 03:09:13;;;;;;;77.00;13.33;;;12.30;93.80;;;;;;4925192;29;20205;-86
2022/02/17 03:11:39;;;;;;;83.33;20.60;;;12.30;94.30;;;;;;4925133;29;20229;-86
2022/02/17 03:14:05;;;;;;;69.90;8.00;;;12.30;93.00;;;;;;4924674;29;20205;-86
2022/02/17 03:16:31;;;;;;;74.27;10.97;;;12.20;94.20;;;;;;4924612;29;20567;-86
2022/02/17 03:18:57;;;;;;;84.30;15.30;;;12.20;93.20;;;;;;4924697;29;20200;-86
2022/02/17 03:21:23;;;;;;;101.68;53.22;;;12.20;92.30;;;;;;4925117;29;20176;-85
2022/02/17 03:23:48;;;;;;;74.90;20.13;;;12.20;91.70;;;;;;4923578;29;20672;-85
2022/02/17 03:26:14;;;;;;;77.10;16.27;;;12.20;90.40;;;;;;4924821;29;20181;-86
2022/02/17 03:28:40;;;;;;;78.87;15.50;;;12.20;92.80;;;;;;4924556;29;20176;-86
2022/02/17 03:31:05;;;;;;;75.70;10.80;;;12.10;94.70;;;;;;4922868;29;20169;-85
2022/02/17 03:33:31;;;;;;;84.10;23.40;;;12.10;94.20;;;;;;4922833;29;20174;-84
2022/02/17 03:36:00;;;;;;;82.20;9.80;;;12.00;92.00;;;;;;4921785;29;20224;-85
2022/02/17 03:38:25;;;;;;;79.03;10.55;;;12.00;93.40;;;;;;4922191;29;20170;-84
2022/02/17 03:40:51;;;;;;;76.10;12.70;;;12.00;92.30;;;;;;4920621;29;20578;-85
2022/02/17 03:43:17;;;;;;;83.00;13.20;;;12.00;92.40;;;;;;4921976;29;20256;-85
2022/02/17 03:45:43;;;;;;;85.00;25.80;;;12.00;92.80;;;;;;4921951;29;20188;-84
2022/02/17 03:48:09;;;;;;;85.90;10.50;;;12.00;93.30;;;;;;4921480;29;20169;-84
2022/02/17 03:50:34;;;;;;;82.83;26.87;;;12.00;92.30;;;;;;4922447;29;20166;-85
2022/02/17 03:53:00;;;;;;;98.17;41.50;;;12.00;91.00;;;;;;4921883;29;20180;-84
2022/02/17 03:55:26;;;;;;;80.77;12.73;;;11.90;90.00;;;;;;4921748;29;20192;-84
2022/02/17 03:57:51;;;;;;;81.80;13.33;;;11.90;86.70;;;;;;4921206;29;20180;-85
2022/02/17 04:00:17;;;;;;;78.13;9.00;;;11.90;88.80;;;;;;4922169;29;20233;-85
2022/02/17 04:02:43;;;;;;;78.70;12.40;;;11.90;88.00;;;;;;4922109;29;20248;-84
2022/02/17 04:05:08;;;;;;;82.90;15.47;;;11.90;93.20;;;;;;4921459;29;20681;-84
2022/02/17 04:07:35;;;;;;;77.40;16.37;;;11.80;97.90;;;;;;4921448;29;20244;-84
2022/02/17 04:10:01;;;;;;;74.22;9.13;;;11.80;97.90;;;;;;4919689;29;20545;-84
2022/02/17 04:12:27;;;;;;;75.17;8.90;;;11.70;96.90;;;;;;4920584;29;20173;-84
2022/02/17 04:14:52;;;;;;;72.30;11.17;;;11.70;96.50;;;;;;4920058;29;20177;-84
2022/02/17 04:17:18;;;;;;;73.30;11.73;;;11.60;92.70;;;;;;4921110;29;20703;-84
2022/02/17 04:19:44;;;;;;;83.30;10.33;;;11.60;93.00;;;;;;4920642;29;20511;-84
2022/02/17 04:22:09;;;;;;;79.23;19.47;;;11.60;94.20;;;;;;4921306;29;20199;-84
2022/02/17 04:24:35;;;;;;;84.00;9.47;;;11.60;90.60;;;;;;4919384;29;20229;-84
2022/02/17 04:27:01;;;;;;;75.97;9.70;;;11.60;90.50;;;;;;4920622;29;20273;-84
2022/02/17 04:29:26;;;;;;;75.53;11.50;;;11.60;89.40;;;;;;4920131;29;20201;-84
2022/02/17 04:31:55;;;;;;;74.57;10.83;;;11.60;87.80;;;;;;4920831;29;20165;-84
2022/02/17 04:34:21;;;;;;;80.60;11.88;;;11.60;85.10;;;;;;4921004;29;20193;-84
2022/02/17 04:36:47;;;;;;;71.97;8.57;;;11.60;86.50;;;;;;4921393;29;20577;-85
2022/02/17 04:39:12;;;;;;;78.03;12.50;;;11.50;82.30;;;;;;4919602;29;20546;-84
2022/02/17 04:44:22;;;;;;;95.95;41.67;;;11.60;78.00;;;;;;4920857;29;20565;-85
2022/02/17 04:46:48;;;;;;;74.87;17.00;;;11.60;72.20;;;;;;4920692;29;20189;-85
2022/02/17 04:49:14;;;;;;;85.60;17.20;;;11.60;70.50;;;;;;4920932;29;20166;-85
2022/02/17 04:51:40;;;;;;;83.55;22.05;;;11.50;68.10;;;;;;4922098;29;20173;-85
2022/02/17 04:54:05;;;;;;;79.77;13.97;;;11.50;69.20;;;;;;4921542;29;20200;-85
2022/02/17 04:56:31;;;;;;;90.60;18.17;;;11.50;69.80;;;;;;4922672;29;20630;-85
2022/02/17 04:58:57;;;;;;;76.60;13.53;;;11.50;70.00;;;;;;4921025;29;20170;-84
2022/02/17 05:01:22;;;;;;;79.67;17.67;;;11.50;71.60;;;;;;4921342;29;20225;-85
2022/02/17 05:03:48;;;;;;;88.80;26.83;;;11.40;70.70;;;;;;4921302;29;20173;-83
2022/02/17 05:06:14;;;;;;;79.37;15.90;;;11.40;71.50;;;;;;4920865;29;20200;-84
2022/02/17 05:08:39;;;;;;;83.90;24.10;;;11.40;69.10;;;;;;4920789;29;20273;-86
2022/02/17 05:11:05;;;;;;;77.93;15.10;;;11.40;65.60;;;;;;4921474;29;20177;-84
2022/02/17 05:13:32;;;;;;;81.23;18.00;;;11.40;67.90;;;;;;4920677;29;20201;-85
2022/02/17 05:15:57;;;;;;;92.32;26.17;;;11.40;68.00;;;;;;4919052;29;20189;-84
2022/02/17 05:18:23;;;;;;;84.67;15.07;;;11.40;68.10;;;;;;4920161;29;20166;-84
2022/02/17 05:20:49;;;;;;;80.13;16.20;;;11.40;70.20;;;;;;4920508;29;20265;-85
2022/02/17 05:23:14;;;;;;;85.70;13.33;;;11.40;75.10;;;;;;4920919;29;20169;-84
2022/02/17 05:25:40;;;;;;;81.93;10.90;;;11.30;77.70;;;;;;4919601;29;20437;-84
2022/02/17 05:28:08;;;;;;;88.63;12.33;;;11.30;92.30;;;;;;4919452;29;20220;-84
2022/02/17 05:30:40;;;;;;;83.47;12.88;;;11.10;95.00;;;;;;4918553;29;20653;-85
2022/02/17 05:33:15;;;;;;;82.85;12.50;;;11.10;98.10;;;;;;4919399;29;20617;-82
2022/02/17 05:35:42;;;;;;;79.00;9.25;;;11.00;97.30;;;;;;4919515;29;20210;-84
2022/02/17 05:38:09;;;;;;;84.82;11.50;;;11.00;99.50;;;;;;4919950;29;20173;-84
2022/02/17 05:40:35;;;;;;;79.30;10.57;;;10.90;99.90;;;;;;4918729;29;20169;-85
2022/02/17 05:43:01;;;;;;;79.90;8.10;;;10.90;99.50;;;;;;4920248;29;20169;-84
2022/02/17 05:45:28;;;;;;;99.82;16.52;;;10.90;99.90;;;;;;4920510;29;20189;-83
2022/02/17 05:47:54;;;;;;;84.80;10.25;;;10.90;97.70;;;;;;4919054;29;20264;-85
2022/02/17 05:50:21;;;;;;;74.68;8.25;;;10.90;96.10;;;;;;4920028;29;20511;-83
2022/02/17 05:52:48;;;;;;;85.05;15.40;;;10.90;94.50;;;;;;4920107;29;20252;-84
2022/02/17 05:55:15;;;;;;;87.28;12.93;;;10.90;94.10;;;;;;4921479;29;20204;-85
2022/02/17 05:57:41;;;;;;;77.20;9.48;;;10.90;96.00;;;;;;4923989;29;20173;-84
2022/02/17 06:00:08;;;;;;;87.38;20.60;;;10.90;95.80;;;;;;4924760;29;20165;-85
2022/02/17 06:02:33;;;;;;;84.68;11.15;;;10.80;94.10;;;;;;4923197;29;20188;-84
2022/02/17 06:04:59;;;;;;;78.73;11.70;;;10.80;93.60;;;;;;4923990;29;20169;-85
2022/02/17 06:07:25;;;;;;;87.17;10.10;;;10.80;93.90;;;;;;4924566;29;20212;-85
2022/02/17 06:09:50;;;;;;;81.70;18.63;;;10.80;93.90;;;;;;4922580;29;20637;-84
2022/02/17 06:12:19;;;;;;;82.47;9.73;;;10.80;92.90;;;;;;4924302;29;20196;-85
2022/02/17 06:14:44;;;;;;;81.65;10.32;;;10.80;95.80;;;;;;4923661;29;20165;-85
2022/02/17 06:17:10;;;;;;;95.07;11.33;;;10.70;94.70;;;;;;4923836;29;20685;-84
2022/02/17 06:19:36;;;;;;;78.83;10.80;;;10.70;94.10;;;;;;4922459;29;20169;-85
2022/02/17 06:22:02;;;;;;;82.33;13.50;;;10.70;97.20;;;;;;4921837;29;20203;-84
2022/02/17 06:24:28;;;;;;;80.20;8.95;;;10.60;98.30;;;;;;4923340;29;20161;-85
2022/02/17 06:26:53;;;;;;;84.13;10.37;;;10.50;99.90;;;;;;4921342;29;20691;-84
2022/02/17 06:29:19;;;;;;;103.50;60.17;;;10.50;99.90;;;;;;4923047;29;20221;-85
2022/02/17 06:31:45;;;;;;;93.27;32.07;;;10.50;99.90;;;;;;4924350;29;20582;-85
2022/02/17 06:34:11;;;;;;;97.47;37.70;;;10.50;99.70;;;;;;4924588;29;20665;-85
2022/02/17 06:36:37;;;;;;;87.50;16.98;;;10.40;99.90;;;;;;4925231;29;20201;-85
2022/02/17 06:39:03;;;;;;;82.70;19.10;;;10.40;99.90;;;;;;4926286;29;20197;-85
2022/02/17 06:41:28;;;;;;;98.27;21.70;;;10.40;99.90;;;;;;4925442;29;20178;-84
2022/02/17 06:43:54;;;;;;;96.83;37.40;;;10.30;99.90;;;;;;4924204;29;20181;-85
2022/02/17 06:46:20;;;;;;;125.57;107.93;;;10.20;99.90;;;;;;4924298;29;20457;-85
2022/02/17 06:48:45;;;;;;;83.67;24.50;;;10.10;99.90;;;;;;4924091;29;20169;-85
2022/02/17 06:51:12;;;;;;;89.40;33.13;;;10.10;99.90;;;;;;4924585;29;20511;-86
2022/02/17 06:53:39;;;;;;;120.32;92.00;;;10.00;99.90;;;;;;4923719;29;20201;-86
2022/02/17 06:56:06;;;;;;;166.77;152.10;;;9.90;99.90;;;;;;4924913;29;20527;-87
2022/02/17 06:58:32;;;;;;;90.80;48.42;;;9.70;99.90;;;;;;4923314;29;20169;-87
2022/02/17 07:00:58;;;;;;;116.25;91.20;;;9.30;99.90;;;;;;4923107;29;20166;-86
2022/02/17 07:03:23;;;;;;;161.77;146.93;;;9.10;99.90;;;;;;4923605;29;20637;-86
2022/02/17 07:05:49;;;;;;;143.90;130.67;;;9.10;99.90;;;;;;4922885;29;20285;-87
2022/02/17 07:08:17;;;;;;;123.83;91.73;;;9.10;99.90;;;;;;4925018;29;20185;-86
2022/02/17 07:10:54;;;;;;;147.43;132.57;;;9.10;99.90;;;;;;4922115;29;20268;-86
2022/02/17 07:13:21;;;;;;;129.82;116.05;;;9.10;99.90;;;;;;4923140;29;20240;-85
2022/02/17 07:15:48;;;;;;;216.77;197.85;;;9.20;99.90;;;;;;4921476;29;20557;-85
2022/02/17 07:18:15;;;;;;;135.98;110.43;;;9.20;99.90;;;;;;4922707;29;20212;-86
2022/02/17 07:20:44;;;;;;;156.57;142.35;;;9.30;99.90;;;;;;4924192;29;20161;-86
2022/02/17 07:23:11;;;;;;;153.82;138.57;;;9.30;99.90;;;;;;4923424;29;20173;-85
2022/02/17 07:25:37;;;;;;;153.73;139.55;;;9.30;99.90;;;;;;4924252;29;20546;-86
2022/02/17 07:28:04;;;;;;;152.10;137.50;;;9.30;99.90;;;;;;4923122;29;20236;-85
2022/02/17 07:30:30;;;;;;;292.40;270.77;;;9.20;99.90;;;;;;4920884;29;20367;-84
2022/02/17 07:32:56;;;;;;;167.80;152.70;;;9.20;99.90;;;;;;4921195;29;20789;-85
2022/02/17 07:35:21;;;;;;;167.47;152.80;;;9.30;99.90;;;;;;4921609;29;20204;-85
2022/02/17 07:37:47;;;;;;;173.13;157.90;;;9.30;99.90;;;;;;4921650;29;20165;-85
2022/02/17 07:40:16;;;;;;;125.33;112.27;;;9.30;99.90;;;;;;4922626;29;20177;-85
2022/02/17 07:42:45;;;;;;;136.20;112.30;;;9.30;99.90;;;;;;4921774;29;20173;-86
2022/02/17 07:45:11;;;;;;;127.55;103.60;;;9.40;99.90;;;;;;4921819;29;20189;-85
2022/02/17 07:47:42;;;;;;;110.50;73.20;;;9.40;99.90;;;;;;4921723;29;20196;-85
2022/02/17 07:50:08;;;;;;;150.30;131.05;;;9.50;99.90;;;;;;4921517;29;20212;-85
2022/02/17 07:52:34;;;;;;;178.38;162.60;;;9.40;99.90;;;;;;4923756;29;20197;-85
2022/02/17 07:55:00;;;;;;;105.68;75.45;;;9.40;99.90;;;;;;4922547;29;20172;-86
2022/02/17 07:57:25;;;;;;;179.73;163.40;;;9.40;99.90;;;;;;4923641;29;20161;-86
2022/02/17 07:59:51;;;;;;;115.07;93.60;;;9.40;99.90;;;;;;4922508;29;20256;-86
2022/02/17 08:02:17;;;;;;;115.53;94.70;;;9.30;99.90;;;;;;4924086;29;20169;-86
2022/02/17 08:04:43;;;;;;;103.57;58.70;;;9.20;99.90;;;;;;4922772;29;20193;-85
2022/02/17 08:07:09;;;;;;;102.63;55.10;;;9.20;99.90;;;;;;4920759;29;20169;-85
2022/02/17 08:09:36;;;;;;;111.78;91.70;;;9.20;99.90;;;;;;4921054;29;20256;-86
2022/02/17 08:12:02;;;;;;;110.00;63.58;;;9.20;99.90;;;;;;4922108;29;20641;-86
2022/02/17 08:14:28;;;;;;;134.87;101.07;;;9.30;99.90;;;;;;4921810;29;20173;-85
2022/02/17 08:16:54;;;;;;;108.23;89.73;;;9.40;99.90;;;;;;4922629;29;20444;-86
2022/02/17 08:19:20;;;;;;;128.23;114.97;;;9.30;99.90;;;;;;4920976;29;20586;-85
2022/02/17 08:21:45;;;;;;;126.23;108.33;;;9.20;99.90;;;;;;4921056;29;20209;-83
2022/02/17 08:24:13;;;;;;;99.37;50.90;;;9.20;99.90;;;;;;4921233;29;20508;-85
2022/02/17 08:26:40;;;;;;;97.53;63.67;;;9.20;99.90;;;;;;4921884;29;20232;-85
2022/02/17 08:29:06;;;;;;;106.03;40.97;;;9.30;99.90;;;;;;4921473;29;20206;-85
2022/02/17 08:31:33;;;;;;;118.22;45.45;;;9.40;99.90;;;;;;4921805;29;20165;-84
2022/02/17 08:34:03;;;;;;;92.50;36.45;;;9.50;99.90;;;;;;4921184;29;20193;-83
2022/02/17 08:36:29;;;;;;;94.40;37.65;;;9.50;99.90;;;;;;4920251;29;20676;-85
2022/02/17 08:38:55;;;;;;;100.30;62.78;;;9.60;99.90;;;;;;4920155;29;20587;-84
2022/02/17 08:41:22;;;;;;;96.17;57.67;;;9.60;99.90;;;;;;4920339;29;20150;-84
2022/02/17 08:43:47;;;;;;;104.63;45.25;;;9.70;99.90;;;;;;4920377;29;20197;-84
2022/02/17 08:46:14;;;;;;;98.63;48.80;;;9.70;99.90;;;;;;4920114;29;20224;-84
2022/02/17 08:48:40;;;;;;;98.05;41.65;;;9.90;99.90;;;;;;4918519;29;20266;-84
2022/02/17 08:51:06;;;;;;;85.83;17.60;;;9.90;99.90;;;;;;4920414;29;20197;-84
2022/02/17 08:53:32;;;;;;;83.20;17.23;;;9.90;99.90;;;;;;4919811;29;20453;-84
2022/02/17 08:55:58;;;;;;;84.40;13.07;;;9.90;99.90;;;;;;4920158;29;20479;-84
2022/02/17 08:58:23;;;;;;;87.10;14.70;;;10.00;99.90;;;;;;4918745;29;20260;-85
2022/02/17 09:00:49;;;;;;;87.07;10.23;;;10.10;99.90;;;;;;4920706;29;20246;-84
2022/02/17 09:03:18;;;;;;;88.43;21.30;;;10.10;99.90;;;;;;4920800;29;20165;-85
2022/02/17 09:05:43;;;;;;;95.88;32.70;;;10.20;98.10;;;;;;4921284;29;20287;-85
2022/02/17 09:08:09;;;;;;;82.70;7.90;;;10.30;95.30;;;;;;4920153;29;20169;-84
2022/02/17 09:10:38;;;;;;;88.00;11.00;;;10.40;90.70;;;;;;4919499;29;20633;-84
2022/02/17 09:13:05;;;;;;;80.20;6.95;;;10.50;75.30;;;;;;4919975;29;20480;-85
2022/02/17 09:15:31;;;;;;;84.65;8.32;;;10.50;88.60;;;;;;4921510;29;20244;-84
2022/02/17 09:17:56;;;;;;;83.90;9.80;;;10.40;86.40;;;;;;4919790;29;20585;-84
2022/02/17 09:20:22;;;;;;;80.77;9.80;;;10.50;84.40;;;;;;4920229;29;20641;-84
2022/02/17 09:22:48;;;;;;;75.40;9.90;;;10.40;69.20;;;;;;4920440;29;20269;-85
2022/02/17 09:25:14;;;;;;;77.20;11.93;;;10.40;72.70;;;;;;4919836;29;20448;-85
2022/02/17 09:27:41;;;;;;;84.78;12.10;;;10.40;59.50;;;;;;4922062;29;20176;-85
2022/02/17 09:30:08;;;;;;;81.80;13.05;;;10.40;69.40;;;;;;4920647;29;20550;-85
2022/02/17 09:32:34;;;;;;;79.00;10.57;;;10.50;73.10;;;;;;4921862;29;20197;-85
2022/02/17 09:35:00;;;;;;;79.20;10.95;;;10.60;75.70;;;;;;4921579;29;20192;-85
2022/02/17 09:37:26;;;;;;;78.90;19.20;;;10.70;76.70;;;;;;4921560;29;20162;-85
2022/02/17 09:39:52;;;;;;;78.80;19.80;;;10.80;51.30;;;;;;4920224;29;20177;-85
2022/02/17 09:42:21;;;;;;;104.03;41.58;;;10.80;47.30;;;;;;4920159;29;20173;-85
2022/02/17 09:44:50;;;;;;;78.93;15.07;;;10.80;42.10;;;;;;4904828;29;20576;-85
2022/02/17 09:47:17;;;;;;;79.47;21.73;;;10.80;40.80;;;;;;4920003;29;20172;-85
2022/02/17 09:49:45;;;;;;;95.45;32.67;;;10.90;43.80;;;;;;4921505;29;20176;-85
2022/02/17 09:52:16;;;;;;;78.43;17.17;;;10.90;41.80;;;;;;4922373;29;20169;-85
2022/02/17 09:57:20;;;;;;;76.30;14.32;;;10.90;32.70;;;;;;4891801;23;20234;-85
2022/02/17 09:59:46;;;;;;;78.45;9.77;;;10.90;36.10;;;;;;4883521;29;20214;-86
2022/02/17 10:02:32;;;;;;;79.17;14.10;;;11.00;42.20;;;;;;4884600;29;20162;-85
2022/02/17 10:05:05;;;;;;;80.35;14.82;;;11.00;38.70;;;;;;4885042;29;20150;-85
2022/02/17 10:07:43;;;;;;;77.53;14.75;;;11.00;29.10;;;;;;4883363;29;20163;-86
2022/02/17 10:10:15;;;;;;;75.63;12.60;;;11.00;36.50;;;;;;4884816;29;20162;-85
2022/02/17 10:13:04;;;;;;;81.78;15.25;;;11.10;35.90;;;;;;4884470;29;20266;-85
2022/02/17 10:15:42;;;;;;;77.53;15.75;;;11.10;33.60;;;;;;4884023;29;20194;-85
2022/02/17 10:18:14;;;;;;;79.15;17.52;;;11.20;31.10;;;;;;4884704;29;20524;-85
2022/02/17 10:21:15;;;;;;;92.45;35.28;;;11.20;33.50;;;;;;4884616;29;20198;-86
2022/02/17 10:23:51;;;;;;;81.30;17.65;;;11.40;29.00;;;;;;4884241;29;20170;-85
2022/02/17 10:26:25;;;;;;;78.47;15.55;;;11.50;26.60;;;;;;4882986;29;20217;-85
2022/02/17 10:29:06;;;;;;;75.15;13.23;;;11.40;25.50;;;;;;4882492;29;20622;-85
2022/02/17 10:31:38;;;;;;;77.00;10.13;;;11.40;20.00;;;;;;4883338;29;20188;-85
2022/02/17 10:34:18;;;;;;;73.43;10.70;;;11.40;20.50;;;;;;4883759;29;20206;-86
2022/02/17 10:37:11;;;;;;;89.22;9.75;;;11.30;12.90;;;;;;4885923;29;20558;-86
2022/02/17 10:39:45;;;;;;;79.53;7.25;;;11.30;11.90;;;;;;4885725;29;20171;-86
2022/02/17 10:42:13;;;;;;;80.60;8.85;;;11.20;3.40;;;;;;4888412;29;20157;-86
2022/02/17 10:44:45;;;;;;;69.10;6.47;;;11.20;4.30;;;;;;4888444;29;20178;-86
2022/02/17 10:47:25;;;;;;;72.80;7.95;;;11.30;9.60;;;;;;4888173;29;20167;-85
2022/02/17 10:49:52;;;;;;;71.93;6.60;;;11.40;9.00;;;;;;4887716;29;20147;-86
2022/02/17 10:52:36;;;;;;;67.82;8.10;;;11.50;6.20;;;;;;4891179;29;20167;-86
2022/02/17 10:55:28;;;;;;;71.80;8.63;;;11.40;1.00;;;;;;4889864;29;20190;-86
2022/02/17 10:57:54;;;;;;;76.07;8.80;;;11.30;1.00;;;;;;4948808;23;20234;-85
2022/02/17 11:00:23;;;;;;;73.70;6.80;;;11.20;1.00;;;;;;4885291;29;20178;-85
2022/02/17 11:02:50;;;;;;;70.30;6.38;;;11.30;1.00;;;;;;4884870;29;20643;-85
2022/02/17 11:05:17;;;;;;;73.22;6.15;;;11.40;1.00;;;;;;4883543;29;20198;-86
2022/02/17 11:07:45;;;;;;;73.78;10.93;;;11.40;1.00;;;;;;4885045;29;20230;-86
2022/02/17 11:10:11;;;;;;;74.00;11.40;;;11.50;1.00;;;;;;4885297;29;20171;-83
2022/02/17 11:12:39;;;;;;;76.38;11.80;;;11.70;1.00;;;;;;4883519;29;20290;-84
2022/02/17 11:15:06;;;;;;;82.60;29.70;;;11.80;1.00;;;;;;4883483;29;20186;-84
2022/02/17 11:17:40;;;;;;;73.97;27.50;;;11.80;1.00;;;;;;4884085;29;20170;-83
2022/02/17 11:20:20;;;;;;;73.82;10.07;;;11.70;1.00;;;;;;4884762;29;20170;-83
2022/02/17 11:22:49;;;;;;;75.07;21.35;;;11.70;1.00;;;;;;4885365;29;20162;-83
2022/02/17 11:25:16;;;;;;;77.10;33.53;;;11.80;1.00;;;;;;4883928;29;20190;-83
2022/02/17 11:28:21;;;;;;;94.45;51.42;;;11.90;1.00;;;;;;4884951;29;20185;-83
2022/02/17 11:30:59;;;;;;;78.82;27.05;;;11.90;1.00;;;;;;4884998;29;20245;-83
2022/02/17 11:33:39;;;;;;;81.10;38.38;;;11.80;1.00;;;;;;4883853;29;20201;-83
2022/02/17 11:36:08;;;;;;;90.28;49.35;;;11.80;1.00;;;;;;4884626;29;20189;-83
2022/02/17 11:38:40;;;;;;;75.93;25.45;;;11.80;1.00;;;;;;4885078;29;20170;-82
2022/02/17 11:41:08;;;;;;;81.40;33.33;;;11.80;1.00;;;;;;4884682;29;20158;-83
2022/02/17 11:43:48;;;;;;;90.45;47.22;;;12.00;1.00;;;;;;4881890;29;20226;-83
2022/02/17 11:46:16;;;;;;;88.93;68.88;;;12.20;1.00;;;;;;4882512;29;20198;-82
2022/02/17 11:48:48;;;;;;;75.35;18.52;;;12.30;1.00;;;;;;4884183;29;20623;-83
2022/02/17 11:51:24;;;;;;;71.38;19.98;;;12.30;1.00;;;;;;4882463;29;20190;-83
2022/02/17 11:54:15;;;;;;;89.82;50.55;;;12.20;1.00;;;;;;4884204;29;20348;-83
2022/02/17 11:56:50;;;;;;;87.15;43.83;;;12.30;1.00;;;;;;4885157;29;20258;-82
2022/02/17 11:59:18;;;;;;;77.97;40.72;;;12.60;1.00;;;;;;4886331;29;20155;-83
2022/02/17 12:01:44;;;;;;;81.90;44.72;;;12.60;1.00;;;;;;4882617;29;20170;-82
2022/02/17 12:04:23;;;;;;;83.07;24.80;;;12.70;1.00;;;;;;4883608;29;20181;-83
2022/02/17 12:07:17;;;;;;;86.18;24.13;;;12.80;1.00;;;;;;4882544;29;20198;-82
2022/02/17 12:09:44;;;;;;;93.30;54.03;;;12.90;1.00;;;;;;4883146;29;20183;-83
2022/02/17 12:12:13;;;;;;;120.95;106.25;;;12.80;1.00;;;;;;4883948;29;20175;-83
2022/02/17 12:15:11;;;;;;;84.95;55.55;;;12.70;1.00;;;;;;4883717;29;20194;-83
2022/02/17 12:17:39;;;;;;;97.53;83.95;;;12.50;1.00;;;;;;4880136;29;20190;-83
2022/02/17 12:20:16;;;;;;;85.93;44.70;;;12.50;1.00;;;;;;4882293;29;20171;-83
2022/02/17 12:22:53;;;;;;;90.60;73.18;;;12.40;1.00;;;;;;4883370;29;20209;-83
2022/02/17 12:25:22;;;;;;;83.25;46.88;;;12.30;1.00;;;;;;4883242;29;20330;-83
2022/02/17 12:27:54;;;;;;;75.05;30.33;;;12.20;1.00;;;;;;4883262;29;20181;-83
2022/02/17 12:30:44;;;;;;;81.32;40.95;;;12.00;1.00;;;;;;4881943;29;20167;-83
2022/02/17 12:33:16;;;;;;;85.15;31.88;;;12.00;1.00;;;;;;4883604;29;20579;-83
2022/02/17 12:36:00;;;;;;;71.40;13.60;;;12.00;1.00;;;;;;4882834;29;20536;-83
2022/02/17 12:38:26;;;;;;;78.13;28.10;;;12.10;1.00;;;;;;4883042;29;20167;-83
2022/02/17 12:40:53;;;;;;;88.97;58.53;;;12.20;1.00;;;;;;4882967;29;20170;-83
2022/02/17 12:43:33;;;;;;;79.15;38.15;;;12.10;1.00;;;;;;4883178;29;20175;-83
2022/02/17 12:46:04;;;;;;;81.50;35.88;;;12.10;1.00;;;;;;4882095;29;20691;-82
2022/02/17 12:48:32;;;;;;;78.13;24.30;;;12.00;1.00;;;;;;4884055;29;20209;-82